• Join FlightAware (Why Join?)
  • Login
  • US Flag 
02:45PM EDT


 

Airport Tracker/Info


-or-


 

Live Flight TrackerFlight Track Log ✈ FTH85 ✈ 26-Feb-2014 ✈ KASE - KBJC

Flight Track Log - Related Links

Times and Time Zones

All times are in EST time to prevent confusion due to time zone crossing. See the FTH85 flight status page for this flight to view local times or setup timezone preferences in your user account.

Time Position Orientation Groundspeed Altitude Reporting Facility
EST Latitude Longitude Course Direction KTS MPH feet Rate Location/Type
12:12PM 39.2672 -106.9339 316° Northwest 196 226 13,500  Level Denver Center
12:13PM 39.3136 -106.9922 316° Northwest 246 283 16,100 2,460 Climbing Denver Center
12:14PM 39.3856 -106.9419 28° Northeast 307 353 18,600 1,380 Climbing Denver Center
12:15PM 39.4400 -106.8156 61° Northeast 362 417 19,000 180 Climbing Denver Center
12:16PM 39.4725 -106.6933 71° East 372 428 19,000  Level Denver Center
12:17PM 39.5092 -106.5497 72° East 377 434 19,000  Level Denver Center
12:18PM 39.5453 -106.4225 70° East 386 444 19,000  Level Denver Center
12:19PM 39.5800 -106.2956 70° East 375 432 19,000 -360 Level Denver Center
12:20PM 39.6194 -106.1525 70° East 364 419 18,300 -780 Descending Denver Center
12:21PM 39.6547 -106.0275 70° East 368 423 17,400 -660 Descending Denver Center
12:22PM 39.6864 -105.9092 71° East 353 406 17,000 -240 Descending Denver Center
12:24PM 39.7206 -105.7808 71° East 359 413 17,000  Level Denver Center
12:25PM 39.7556 -105.6497 71° East 359 413 17,000 -600 Level Denver Center
12:26PM 39.7889 -105.5300 70° East 351 404 15,800 -1,380 Descending Denver Center
12:27PM 39.8172 -105.4236 71° East 315 362 14,200 -1,680 Descending Denver Center
12:28PM 39.8394 -105.3136 75° East 291 335 12,400 -1,920 Descending Denver Center
12:29PM 39.8625 -105.2228 72° East 268 308 10,300 -2,100 Descending Denver Center
12:30PM 39.8861 -105.1467 68° East 204 235 8,100 -1,620 Descending Denver Center
12:31PM 39.8636 -105.1006 122° Southeast 150 173 7,000 -1,140 Descending Denver Center
12:32PM 39.8958 -105.0878 17° North 121 139 5,800 -1,200 Descending Denver Center
12:34PM 39.9088 -105.1172 300° West  Level Estimated